Time;durP1;ratioP1;P1;durP2;ratioP2;P2;SDS_P1;SDS_P2;PMS_P1;PMS_P2;Temp;Humidity;BMP_temperature;BMP_pressure;BME280_temperature;BME280_humidity;BME280_pressure;Samples;Min_cycle;Max_cycle;Signal;HPM_P1;HPM_P2
2021/03/09 00:02:27;;;;;;;15.63;7.00;;;1.20;99.90;;;;;;4985209;28;20026;-84
2021/03/09 00:18:51;;;;;;;11.67;6.40;;;1.10;99.90;;;;;;4945525;28;20046;-85
2021/03/09 00:38:52;;;;;;;;;;;;;;;;;;;;;
2021/03/09 00:51:51;;;;;;;15.60;7.20;;;0.90;99.90;;;;;;4943263;28;20382;-87
2021/03/09 00:55:29;;;;;;;;;;;;;;;;;;;;;
2021/03/09 01:15:17;;;;;;;15.10;7.73;;;0.80;99.90;;;;;;4983344;23;22048;-87
2021/03/09 01:17:43;;;;;;;16.40;7.17;;;0.80;99.90;;;;;;5029370;28;20081;-87
2021/03/09 01:20:09;;;;;;;14.97;8.30;;;0.80;99.90;;;;;;5029964;28;20100;-87
2021/03/09 01:22:35;;;;;;;15.43;8.40;;;0.80;99.90;;;;;;5020132;28;20021;-87
2021/03/09 01:25:02;;;;;;;13.90;7.33;;;0.80;99.90;;;;;;5011079;28;20544;-87
2021/03/09 01:27:27;;;;;;;17.90;8.63;;;0.80;99.90;;;;;;5002822;28;20026;-86
2021/03/09 01:29:53;;;;;;;13.53;7.87;;;0.80;99.90;;;;;;5004027;28;20024;-87
2021/03/09 01:32:19;;;;;;;15.27;8.10;;;0.80;99.90;;;;;;5025512;28;20033;-87
2021/03/09 01:34:44;;;;;;;14.83;8.10;;;0.80;99.90;;;;;;5011600;28;20018;-86
2021/03/09 01:37:10;;;;;;;12.27;7.80;;;0.70;99.90;;;;;;5008731;28;20028;-87
2021/03/09 01:39:35;;;;;;;15.23;8.07;;;0.70;99.90;;;;;;5017418;28;20112;-87
2021/03/09 01:42:01;;;;;;;12.67;8.23;;;0.70;99.90;;;;;;5033123;28;20025;-87
2021/03/09 01:44:28;;;;;;;13.50;7.80;;;0.70;99.90;;;;;;5032182;28;20048;-87
2021/03/09 01:46:55;;;;;;;13.10;8.07;;;0.70;99.90;;;;;;5009742;28;20435;-87
2021/03/09 01:49:21;;;;;;;13.20;7.60;;;0.70;99.90;;;;;;5031752;28;20096;-87
2021/03/09 01:51:48;;;;;;;15.63;8.20;;;0.70;99.90;;;;;;5010240;28;20030;-87
2021/03/09 01:54:14;;;;;;;15.30;8.77;;;0.70;99.90;;;;;;5013395;28;20037;-87
2021/03/09 01:56:42;;;;;;;15.63;8.17;;;0.70;99.90;;;;;;5025722;28;20033;-87
2021/03/09 01:59:08;;;;;;;15.00;8.60;;;0.60;99.90;;;;;;5028039;28;20030;-87
2021/03/09 02:01:37;;;;;;;17.47;8.70;;;0.60;99.90;;;;;;5018433;28;20057;-87
2021/03/09 02:04:03;;;;;;;14.37;8.83;;;0.60;99.90;;;;;;5005316;28;20123;-87
2021/03/09 02:06:29;;;;;;;14.33;8.40;;;0.60;99.90;;;;;;5006430;28;20030;-87
2021/03/09 02:08:55;;;;;;;15.47;9.07;;;0.60;99.90;;;;;;5000840;28;20025;-87
2021/03/09 02:11:43;;;;;;;16.53;8.73;;;0.60;99.90;;;;;;5013655;28;20479;-87
2021/03/09 02:14:23;;;;;;;13.50;8.43;;;0.60;99.90;;;;;;5016937;28;20536;-87
2021/03/09 02:16:53;;;;;;;17.40;8.23;;;0.50;99.90;;;;;;5026998;28;20275;-87
2021/03/09 02:19:46;;;;;;;16.50;8.20;;;0.50;99.90;;;;;;5031270;28;20125;-87
2021/03/09 02:22:50;;;;;;;13.10;8.07;;;0.50;99.90;;;;;;5015312;28;20029;-87
2021/03/09 02:26:07;;;;;;;15.30;8.53;;;0.50;99.90;;;;;;4991496;28;20037;-87
2021/03/09 02:28:41;;;;;;;14.93;8.83;;;0.50;99.90;;;;;;5006152;28;20041;-87
2021/03/09 02:31:07;;;;;;;16.90;9.20;;;0.50;99.90;;;;;;5006447;28;20394;-87
2021/03/09 02:33:38;;;;;;;14.47;8.63;;;0.50;99.90;;;;;;5031633;28;20026;-88
2021/03/09 02:36:19;;;;;;;13.83;8.37;;;0.50;99.90;;;;;;5009967;28;20037;-87
2021/03/09 02:39:00;;;;;;;15.43;8.60;;;0.50;99.90;;;;;;5006215;28;20112;-87
2021/03/09 02:41:28;;;;;;;15.95;8.65;;;0.40;99.90;;;;;;5023183;28;20030;-87
2021/03/09 02:43:55;;;;;;;17.03;8.57;;;0.40;99.90;;;;;;5006125;28;20058;-86
2021/03/09 02:46:24;;;;;;;16.53;9.17;;;0.40;99.90;;;;;;5030740;28;20033;-87
2021/03/09 02:48:51;;;;;;;16.00;9.50;;;0.40;99.90;;;;;;5012420;28;20108;-87
2021/03/09 02:51:18;;;;;;;16.33;9.10;;;0.40;99.90;;;;;;5011290;28;20093;-87
2021/03/09 02:53:49;;;;;;;16.70;8.97;;;0.30;99.90;;;;;;5026435;28;20029;-87
2021/03/09 02:56:16;;;;;;;18.23;9.33;;;0.30;99.90;;;;;;5035919;28;20385;-87
2021/03/09 02:58:48;;;;;;;14.90;8.83;;;0.30;99.90;;;;;;5012746;28;20030;-87
2021/03/09 03:01:14;;;;;;;16.38;8.68;;;0.30;99.90;;;;;;5027814;28;20025;-87
2021/03/09 03:03:46;;;;;;;13.33;8.10;;;0.30;99.90;;;;;;5008263;28;20030;-86
2021/03/09 03:06:12;;;;;;;17.80;9.03;;;0.30;99.90;;;;;;5010170;28;20025;-87
2021/03/09 03:08:39;;;;;;;16.10;9.23;;;0.30;99.90;;;;;;5017184;28;20103;-87
2021/03/09 03:11:06;;;;;;;16.57;9.00;;;0.30;99.90;;;;;;5003803;28;20101;-86
2021/03/09 03:13:33;;;;;;;17.60;8.20;;;0.30;99.90;;;;;;5011298;28;20022;-87
2021/03/09 03:16:00;;;;;;;16.00;9.03;;;0.20;99.90;;;;;;5011890;28;20116;-87
2021/03/09 03:18:29;;;;;;;15.33;8.27;;;0.20;99.90;;;;;;5032191;28;20021;-87
2021/03/09 03:20:54;;;;;;;15.80;8.83;;;0.20;99.90;;;;;;5032704;28;20021;-86
2021/03/09 03:23:23;;;;;;;15.50;8.90;;;0.20;99.90;;;;;;5015816;28;20397;-87
2021/03/09 03:25:54;;;;;;;16.10;8.57;;;0.20;99.90;;;;;;5017109;28;20418;-87
2021/03/09 03:28:21;;;;;;;15.80;9.33;;;0.20;99.90;;;;;;5021775;28;20020;-87
2021/03/09 03:30:48;;;;;;;17.63;10.00;;;0.20;99.90;;;;;;5012371;28;20034;-87
2021/03/09 03:33:14;;;;;;;14.37;8.70;;;0.20;99.90;;;;;;5014551;28;20030;-87
2021/03/09 03:35:40;;;;;;;15.23;8.30;;;0.10;99.90;;;;;;5009366;28;20462;-87
2021/03/09 03:38:06;;;;;;;17.80;8.87;;;0.10;99.90;;;;;;5016250;28;20033;-88
2021/03/09 03:40:32;;;;;;;18.33;8.77;;;0.10;99.90;;;;;;5029542;28;20025;-87
2021/03/09 03:42:58;;;;;;;15.40;8.67;;;0.10;99.90;;;;;;5006497;28;20026;-87
2021/03/09 03:45:24;;;;;;;14.20;8.33;;;0.10;99.90;;;;;;5017185;28;20589;-87
2021/03/09 03:47:57;;;;;;;16.17;9.30;;;0.10;99.90;;;;;;5035118;28;20478;-87
2021/03/09 03:50:23;;;;;;;16.13;9.07;;;0.10;99.90;;;;;;5031147;28;20028;-87
2021/03/09 03:53:01;;;;;;;15.03;8.43;;;0.10;99.90;;;;;;5035316;28;20474;-86
2021/03/09 03:55:33;;;;;;;15.53;8.90;;;0.10;99.90;;;;;;5009900;28;20040;-88
2021/03/09 03:58:17;;;;;;;16.48;9.15;;;0.10;99.90;;;;;;5017363;28;20075;-87
2021/03/09 04:00:44;;;;;;;14.97;9.23;;;0.00;99.90;;;;;;5012347;28;20104;-87
2021/03/09 04:03:13;;;;;;;16.77;9.70;;;0.00;99.90;;;;;;5033347;28;20030;-87
2021/03/09 04:05:42;;;;;;;15.40;8.97;;;0.00;99.90;;;;;;5017343;28;20037;-87
2021/03/09 04:08:08;;;;;;;16.60;9.17;;;0.00;99.90;;;;;;5017304;28;20143;-87
2021/03/09 04:10:34;;;;;;;18.50;9.47;;;0.00;99.90;;;;;;5003034;28;20533;-85
2021/03/09 04:13:01;;;;;;;17.20;9.53;;;0.00;99.90;;;;;;5011833;28;20014;-87
2021/03/09 04:15:29;;;;;;;14.73;9.23;;;0.00;99.90;;;;;;5030529;28;20028;-88
2021/03/09 04:17:56;;;;;;;16.63;9.93;;;0.00;99.90;;;;;;5028114;28;20083;-87
2021/03/09 04:20:23;;;;;;;18.50;10.60;;;0.00;99.90;;;;;;5033702;28;20107;-87
2021/03/09 04:22:50;;;;;;;18.50;9.60;;;0.00;99.90;;;;;;5033457;28;20025;-86
2021/03/09 04:25:17;;;;;;;17.33;9.97;;;0.00;99.90;;;;;;5030488;28;20022;-87
2021/03/09 04:27:43;;;;;;;17.37;10.50;;;0.00;99.90;;;;;;5015366;28;20073;-88
2021/03/09 04:30:12;;;;;;;16.27;9.37;;;0.00;99.90;;;;;;4999833;28;20053;-87
2021/03/09 04:32:38;;;;;;;17.20;9.63;;;0.00;99.90;;;;;;5033548;28;20614;-87
2021/03/09 04:35:04;;;;;;;16.17;9.50;;;0.00;99.90;;;;;;5008254;28;20139;-87
2021/03/09 04:37:31;;;;;;;19.27;10.10;;;0.00;99.90;;;;;;5025472;28;20020;-87
2021/03/09 04:39:58;;;;;;;17.57;9.47;;;0.00;99.90;;;;;;5013668;28;20422;-87
2021/03/09 04:42:24;;;;;;;17.23;9.70;;;-0.10;99.90;;;;;;5004690;28;20022;-87
2021/03/09 04:44:50;;;;;;;17.63;10.00;;;-0.10;99.90;;;;;;5006726;28;20109;-88
2021/03/09 04:47:17;;;;;;;17.77;9.80;;;-0.10;99.90;;;;;;5000926;28;20022;-87
2021/03/09 04:49:43;;;;;;;19.70;10.20;;;-0.10;99.90;;;;;;5013763;28;20017;-87
2021/03/09 04:52:11;;;;;;;20.43;10.43;;;-0.10;99.90;;;;;;5033282;28;20025;-87
2021/03/09 04:54:37;;;;;;;19.17;10.13;;;-0.10;99.90;;;;;;5011948;28;20022;-88
2021/03/09 04:57:03;;;;;;;17.07;10.57;;;-0.10;99.90;;;;;;5013077;28;20454;-87
2021/03/09 04:59:29;;;;;;;18.77;9.63;;;-0.10;99.90;;;;;;5009040;28;20030;-87
2021/03/09 05:01:55;;;;;;;18.47;10.30;;;-0.20;99.90;;;;;;5016193;28;20017;-88
2021/03/09 05:04:21;;;;;;;18.83;9.83;;;-0.20;99.90;;;;;;5033345;28;20024;-87
2021/03/09 05:06:46;;;;;;;16.33;9.47;;;-0.30;99.90;;;;;;5006322;28;20032;-87
2021/03/09 05:09:12;;;;;;;18.13;10.10;;;-0.30;99.90;;;;;;5030244;28;20025;-87
2021/03/09 05:11:38;;;;;;;16.87;10.40;;;-0.30;99.90;;;;;;5016135;28;20022;-87
2021/03/09 05:14:04;;;;;;;17.10;9.87;;;-0.30;99.90;;;;;;5014003;28;20018;-87
2021/03/09 05:16:30;;;;;;;21.87;11.63;;;-0.30;99.90;;;;;;5012709;28;20109;-87
2021/03/09 05:18:55;;;;;;;25.23;11.83;;;-0.30;99.90;;;;;;5015530;28;20029;-87
2021/03/09 05:21:21;;;;;;;22.73;10.93;;;-0.30;99.90;;;;;;5005609;28;20098;-87
2021/03/09 05:23:47;;;;;;;22.07;10.97;;;-0.30;99.90;;;;;;5004402;28;20025;-88
2021/03/09 05:26:13;;;;;;;20.37;10.80;;;-0.30;99.90;;;;;;5006988;28;20022;-87
2021/03/09 05:28:38;;;;;;;22.40;11.93;;;-0.30;99.90;;;;;;5015432;28;20064;-87
2021/03/09 05:31:04;;;;;;;19.87;10.47;;;-0.30;99.90;;;;;;5032938;28;20381;-86
2021/03/09 05:33:29;;;;;;;22.37;12.30;;;-0.30;99.90;;;;;;5022037;28;20032;-88
2021/03/09 05:35:55;;;;;;;20.80;11.87;;;-0.30;99.90;;;;;;5011975;28;20029;-87
2021/03/09 05:38:21;;;;;;;21.97;11.30;;;-0.30;99.90;;;;;;5029536;28;20017;-87
2021/03/09 05:40:47;;;;;;;21.90;11.50;;;-0.30;99.90;;;;;;5010543;28;20120;-87
2021/03/09 05:43:13;;;;;;;20.23;11.87;;;-0.20;99.90;;;;;;5005894;28;20033;-87
2021/03/09 05:45:39;;;;;;;21.37;12.40;;;-0.20;99.90;;;;;;5032025;28;20468;-87
2021/03/09 05:48:05;;;;;;;19.23;11.23;;;-0.20;99.90;;;;;;5012540;28;20032;-87
2021/03/09 05:50:31;;;;;;;18.87;10.87;;;-0.20;99.90;;;;;;5010467;28;20025;-87
2021/03/09 05:52:56;;;;;;;20.27;10.87;;;-0.20;99.90;;;;;;5010545;28;20105;-87
2021/03/09 05:55:22;;;;;;;22.87;12.00;;;-0.30;99.90;;;;;;4998551;28;20080;-87
2021/03/09 05:57:48;;;;;;;20.73;11.83;;;-0.30;99.90;;;;;;4996626;28;20394;-87
2021/03/09 06:00:14;;;;;;;23.87;12.47;;;-0.30;99.90;;;;;;5015687;28;20103;-88
2021/03/09 06:02:41;;;;;;;21.40;11.60;;;-0.30;99.90;;;;;;5011699;28;20036;-87
2021/03/09 06:05:08;;;;;;;21.80;11.80;;;-0.30;99.90;;;;;;5034310;28;20093;-87
2021/03/09 06:07:35;;;;;;;20.30;11.90;;;-0.20;99.90;;;;;;5035865;28;20036;-87
2021/03/09 06:10:02;;;;;;;23.93;12.03;;;-0.20;99.90;;;;;;5013603;28;20018;-88
2021/03/09 06:12:28;;;;;;;20.27;11.07;;;-0.20;99.90;;;;;;5007653;28;20029;-87
2021/03/09 06:14:59;;;;;;;23.90;12.27;;;-0.20;99.90;;;;;;5012309;28;20116;-87
2021/03/09 06:17:37;;;;;;;20.83;11.80;;;-0.20;99.90;;;;;;5030772;28;20034;-87
2021/03/09 06:20:08;;;;;;;21.80;11.90;;;-0.20;99.90;;;;;;5013022;28;20034;-86
2021/03/09 06:22:42;;;;;;;21.47;11.10;;;-0.20;99.90;;;;;;5030334;28;20048;-87
2021/03/09 06:25:10;;;;;;;24.73;12.37;;;-0.10;99.90;;;;;;5016432;28;20060;-87
2021/03/09 06:27:36;;;;;;;20.13;11.87;;;-0.10;99.90;;;;;;5012996;28;20025;-87
2021/03/09 06:30:05;;;;;;;22.80;12.57;;;-0.10;99.90;;;;;;5015152;28;20116;-87
2021/03/09 06:32:48;;;;;;;23.93;13.70;;;-0.10;99.90;;;;;;5021629;28;20036;-87
2021/03/09 06:35:38;;;;;;;24.27;12.93;;;0.00;99.90;;;;;;5008181;28;20061;-87
2021/03/09 06:38:22;;;;;;;20.53;11.93;;;0.10;99.90;;;;;;5015397;28;20029;-87
2021/03/09 06:41:11;;;;;;;22.30;12.30;;;0.20;99.90;;;;;;5004520;28;20495;-87
2021/03/09 06:43:39;;;;;;;22.93;12.03;;;0.20;99.90;;;;;;5014343;28;20104;-87
2021/03/09 06:46:16;;;;;;;25.83;12.57;;;0.20;99.90;;;;;;5028068;28;20033;-88
2021/03/09 06:48:44;;;;;;;20.67;12.67;;;0.20;99.90;;;;;;5011890;28;20044;-88
2021/03/09 06:51:25;;;;;;;21.43;12.70;;;0.30;99.90;;;;;;5015833;28;20096;-86
2021/03/09 06:54:10;;;;;;;23.90;13.93;;;0.30;99.90;;;;;;5024088;28;20069;-87
2021/03/09 06:56:38;;;;;;;22.87;13.40;;;0.30;99.90;;;;;;4998314;28;20394;-86
2021/03/09 06:59:24;;;;;;;24.40;13.30;;;0.40;99.90;;;;;;5012076;28;20038;-88
2021/03/09 07:02:17;;;;;;;25.23;12.50;;;0.50;99.90;;;;;;5007511;28;20037;-87
2021/03/09 07:04:51;;;;;;;23.40;13.47;;;0.60;99.90;;;;;;5007044;28;20041;-87
2021/03/09 07:07:34;;;;;;;23.20;13.33;;;0.60;99.90;;;;;;5025582;28;20022;-87
2021/03/09 07:10:08;;;;;;;22.13;12.27;;;0.70;99.90;;;;;;5028524;28;20026;-88
2021/03/09 07:12:39;;;;;;;23.63;12.97;;;0.70;99.90;;;;;;5024602;28;20084;-88
2021/03/09 07:15:07;;;;;;;22.93;13.37;;;0.80;99.90;;;;;;5006129;28;20029;-86
2021/03/09 07:17:36;;;;;;;27.80;14.17;;;0.80;99.90;;;;;;5006548;28;20036;-88
2021/03/09 07:20:06;;;;;;;25.43;13.57;;;0.90;99.90;;;;;;5023574;28;20040;-87
2021/03/09 07:22:34;;;;;;;24.00;13.37;;;1.00;99.90;;;;;;5025183;28;20504;-88
2021/03/09 07:25:05;;;;;;;23.63;13.77;;;1.00;99.90;;;;;;5009478;28;20026;-87
2021/03/09 07:27:52;;;;;;;18.88;10.60;;;1.10;99.90;;;;;;5025188;28;20068;-88
2021/03/09 07:30:23;;;;;;;21.50;13.80;;;1.10;99.90;;;;;;5009345;28;20060;-88
2021/03/09 07:32:54;;;;;;;22.70;13.27;;;1.10;99.90;;;;;;5025295;28;20028;-86
2021/03/09 07:35:21;;;;;;;24.33;13.73;;;1.10;99.90;;;;;;5006397;28;20041;-88
2021/03/09 07:37:55;;;;;;;24.17;14.83;;;1.10;99.90;;;;;;5021183;23;20045;-87
2021/03/09 07:40:35;;;;;;;;;;;;;;;;;;;;;
2021/03/09 07:43:15;;;;;;;23.03;13.43;;;1.30;99.90;;;;;;5006895;28;20022;-87
2021/03/09 07:45:42;;;;;;;24.10;13.07;;;1.30;99.90;;;;;;5003438;28;20038;-88
2021/03/09 07:48:17;;;;;;;23.53;13.30;;;1.40;99.90;;;;;;5007881;28;20482;-88
2021/03/09 07:50:46;;;;;;;25.77;13.53;;;1.40;99.90;;;;;;5008838;28;20561;-86
2021/03/09 07:53:17;;;;;;;23.53;13.20;;;1.50;99.90;;;;;;4991098;28;20080;-86
2021/03/09 07:55:43;;;;;;;23.47;13.87;;;1.50;99.90;;;;;;4996252;28;20030;-87
2021/03/09 07:58:26;;;;;;;19.93;12.50;;;1.30;99.90;;;;;;4995909;28;20124;-92
2021/03/09 08:00:59;;;;;;;21.85;13.25;;;1.30;99.90;;;;;;5006171;28;20038;-92
2021/03/09 08:03:30;;;;;;;22.80;12.97;;;1.30;99.90;;;;;;4992553;28;20125;-92
2021/03/09 08:06:03;;;;;;;23.40;13.27;;;1.40;99.90;;;;;;5004318;28;20253;-92
2021/03/09 08:08:49;;;;;;;22.80;13.47;;;1.30;99.90;;;;;;5005165;28;20455;-92
2021/03/09 08:11:27;;;;;;;25.30;14.80;;;1.40;99.90;;;;;;4993562;28;20084;-91
2021/03/09 08:14:08;;;;;;;26.43;14.73;;;1.40;99.90;;;;;;5016804;28;20025;-92
2021/03/09 08:16:40;;;;;;;23.60;13.83;;;1.30;99.90;;;;;;4994621;28;20490;-91
2021/03/09 08:19:13;;;;;;;23.67;14.02;;;1.20;99.90;;;;;;5009125;28;20558;-92
2021/03/09 08:21:39;;;;;;;25.30;13.87;;;1.30;99.90;;;;;;4994457;28;20124;-91
2021/03/09 08:24:05;;;;;;;24.47;13.93;;;1.30;99.90;;;;;;4990878;28;20376;-91
2021/03/09 08:26:31;;;;;;;23.70;13.70;;;1.40;99.90;;;;;;5004414;28;20512;-92
2021/03/09 08:28:57;;;;;;;23.97;13.80;;;1.50;99.90;;;;;;5011686;28;20064;-91
2021/03/09 08:31:34;;;;;;;26.67;14.13;;;1.50;99.90;;;;;;4993246;28;20116;-91
2021/03/09 08:34:23;;;;;;;27.07;15.07;;;1.70;99.90;;;;;;4993212;28;20048;-91
2021/03/09 08:36:49;;;;;;;23.60;14.13;;;1.90;99.90;;;;;;4981414;28;20034;-90
2021/03/09 08:39:16;;;;;;;23.77;13.20;;;2.00;99.90;;;;;;4978452;28;20041;-91
2021/03/09 08:41:46;;;;;;;24.80;13.80;;;2.00;99.90;;;;;;5010673;28;20061;-91
2021/03/09 08:44:21;;;;;;;23.53;13.77;;;1.90;99.90;;;;;;4988877;28;20544;-90
2021/03/09 08:47:05;;;;;;;23.17;12.73;;;2.00;99.90;;;;;;4990786;28;20110;-91
2021/03/09 08:49:36;;;;;;;21.90;12.83;;;2.20;99.90;;;;;;5011349;28;20030;-92
2021/03/09 08:52:10;;;;;;;23.97;13.87;;;2.40;99.90;;;;;;4994591;28;20069;-92
2021/03/09 09:05:37;;;;;;;22.90;14.30;;;2.70;99.90;;;;;;4835726;29;20060;-94
2021/03/09 09:44:18;;;;;;;23.57;12.47;;;4.00;99.90;;;;;;4979843;28;20399;-88
2021/03/09 09:46:48;;;;;;;22.00;11.67;;;4.20;99.90;;;;;;4988997;28;20037;-90
2021/03/09 09:49:14;;;;;;;22.00;13.07;;;4.40;99.90;;;;;;4984812;28;20041;-91
2021/03/09 09:51:42;;;;;;;20.20;12.77;;;4.60;99.90;;;;;;4980083;28;20027;-91
2021/03/09 09:54:12;;;;;;;21.00;12.00;;;4.70;99.90;;;;;;4975629;28;20030;-90
2021/03/09 09:56:41;;;;;;;20.27;11.67;;;4.70;99.90;;;;;;4991684;28;20019;-94
2021/03/09 09:59:07;;;;;;;22.60;13.00;;;4.80;99.90;;;;;;4974301;28;20559;-93
2021/03/09 10:01:41;;;;;;;28.67;15.63;;;4.90;99.90;;;;;;4988079;28;20100;-93
2021/03/09 10:04:13;;;;;;;19.03;12.50;;;5.00;99.90;;;;;;4986435;28;20130;-92
2021/03/09 10:06:47;;;;;;;21.10;12.03;;;5.10;99.90;;;;;;4977156;28;20507;-92
2021/03/09 16:22:23;;;;;;;12.67;8.20;;;7.20;80.00;;;;;;4999187;28;20034;-87
2021/03/09 16:24:49;;;;;;;13.97;9.23;;;7.10;79.60;;;;;;4983148;28;20026;-87
2021/03/09 16:27:15;;;;;;;16.20;9.10;;;7.10;79.80;;;;;;5002233;28;20494;-89
2021/03/09 16:29:40;;;;;;;17.47;8.87;;;7.10;80.90;;;;;;4978158;28;20021;-88
2021/03/09 16:32:06;;;;;;;13.53;8.13;;;6.90;81.70;;;;;;4975996;28;20022;-89
2021/03/09 16:34:32;;;;;;;14.27;9.07;;;6.90;82.10;;;;;;4975659;28;20022;-89
2021/03/09 16:36:58;;;;;;;14.67;9.73;;;6.90;82.60;;;;;;4975996;28;20033;-89
2021/03/09 16:39:23;;;;;;;13.10;8.97;;;6.90;83.20;;;;;;4992393;28;20054;-88
2021/03/09 16:41:49;;;;;;;14.33;9.17;;;6.70;83.90;;;;;;4970637;28;20522;-88
2021/03/09 16:44:14;;;;;;;13.30;8.83;;;6.70;84.60;;;;;;4974110;28;20061;-86
2021/03/09 16:46:40;;;;;;;15.00;9.63;;;6.70;85.10;;;;;;4969554;28;20091;-86
2021/03/09 16:49:06;;;;;;;14.10;9.70;;;6.70;86.10;;;;;;4971654;28;20030;-86
2021/03/09 16:51:31;;;;;;;15.57;9.57;;;6.70;86.70;;;;;;4971625;28;20050;-87
2021/03/09 16:53:57;;;;;;;13.80;9.40;;;6.70;86.80;;;;;;4971591;28;20460;-87
2021/03/09 16:56:23;;;;;;;16.70;10.37;;;6.70;87.30;;;;;;4991892;28;20081;-87
2021/03/09 16:58:49;;;;;;;20.50;10.23;;;6.70;87.90;;;;;;4974927;28;20643;-87
2021/03/09 17:01:14;;;;;;;14.27;9.67;;;6.70;88.10;;;;;;4972147;28;20077;-86
2021/03/09 17:03:40;;;;;;;15.90;9.47;;;6.70;89.60;;;;;;4972527;28;20096;-87
2021/03/09 17:06:06;;;;;;;15.60;9.53;;;6.70;88.90;;;;;;4971617;28;20073;-87
2021/03/09 17:08:32;;;;;;;13.90;9.53;;;6.70;89.30;;;;;;4971903;28;20552;-87
2021/03/09 17:10:57;;;;;;;14.43;9.33;;;6.60;90.00;;;;;;4980023;28;20025;-86
2021/03/09 17:13:23;;;;;;;16.97;10.47;;;6.50;90.30;;;;;;4995495;28;20062;-87
2021/03/09 17:15:50;;;;;;;14.87;9.80;;;6.50;90.90;;;;;;4983865;28;20061;-87
2021/03/09 17:18:16;;;;;;;14.77;9.87;;;6.50;90.70;;;;;;4976171;28;20040;-87
2021/03/09 17:20:41;;;;;;;18.77;10.10;;;6.50;90.70;;;;;;4966549;28;20038;-87
2021/03/09 17:23:08;;;;;;;14.70;9.83;;;6.50;90.90;;;;;;4976320;28;20248;-87
2021/03/09 17:25:34;;;;;;;16.17;10.70;;;6.40;91.40;;;;;;4979524;28;20109;-86
2021/03/09 17:28:00;;;;;;;15.87;10.37;;;6.40;91.40;;;;;;4973455;28;20030;-87
2021/03/09 17:30:26;;;;;;;15.43;10.90;;;6.40;91.70;;;;;;4973203;28;20034;-87
2021/03/09 17:32:55;;;;;;;14.60;10.53;;;6.40;92.00;;;;;;4985674;28;20368;-87
2021/03/09 17:35:21;;;;;;;17.57;10.20;;;6.30;92.10;;;;;;4972124;28;20033;-86
2021/03/09 17:37:46;;;;;;;17.00;10.43;;;6.30;92.50;;;;;;4971921;28;20428;-86
2021/03/09 17:40:13;;;;;;;18.93;12.60;;;6.30;92.50;;;;;;4974215;28;20030;-86
2021/03/09 17:42:39;;;;;;;19.97;11.30;;;6.40;92.40;;;;;;4970043;28;20028;-87
2021/03/09 17:45:07;;;;;;;16.27;10.27;;;6.30;92.70;;;;;;4970565;28;20030;-87
2021/03/09 17:47:32;;;;;;;17.77;11.13;;;6.30;92.70;;;;;;4974099;28;20089;-86
2021/03/09 17:49:59;;;;;;;20.67;13.27;;;6.30;92.80;;;;;;4973040;28;20026;-87
2021/03/09 17:52:26;;;;;;;19.93;14.17;;;6.20;93.00;;;;;;4990384;28;20081;-86
2021/03/09 17:54:52;;;;;;;21.17;13.47;;;6.20;93.30;;;;;;4963354;28;20030;-87
2021/03/09 17:57:18;;;;;;;18.93;12.97;;;6.10;93.40;;;;;;4969821;28;20037;-87
2021/03/09 17:59:43;;;;;;;17.60;11.27;;;6.10;93.60;;;;;;4979941;28;20030;-87
2021/03/09 18:02:11;;;;;;;19.70;10.60;;;6.00;94.00;;;;;;4980794;28;20796;-86
2021/03/09 18:04:37;;;;;;;16.07;10.87;;;6.00;94.20;;;;;;4993887;28;20029;-85
2021/03/09 18:07:03;;;;;;;18.37;12.00;;;5.90;94.20;;;;;;4994390;28;20073;-87
2021/03/09 18:09:28;;;;;;;15.67;10.90;;;6.00;94.60;;;;;;4983813;28;20058;-87
2021/03/09 18:11:55;;;;;;;16.80;10.77;;;6.10;93.60;;;;;;4988325;28;20110;-87
2021/03/09 18:14:20;;;;;;;20.13;13.00;;;6.00;93.60;;;;;;4973328;28;20034;-85
2021/03/09 18:16:49;;;;;;;18.80;13.33;;;5.90;93.10;;;;;;4963325;28;20077;-86
2021/03/09 18:19:14;;;;;;;21.80;13.30;;;5.90;93.40;;;;;;4971126;28;20442;-86
2021/03/09 18:21:40;;;;;;;19.60;12.67;;;5.90;93.00;;;;;;4964925;28;20483;-85
2021/03/09 18:24:08;;;;;;;21.93;15.00;;;5.90;92.80;;;;;;4967972;28;20459;-85
2021/03/09 18:26:34;;;;;;;21.00;12.80;;;5.90;93.00;;;;;;4970951;28;20037;-85
2021/03/09 18:29:00;;;;;;;19.87;12.13;;;5.80;92.60;;;;;;4985196;28;20033;-85
2021/03/09 18:31:25;;;;;;;19.47;11.47;;;5.80;92.40;;;;;;4973071;28;20030;-85
2021/03/09 18:33:51;;;;;;;19.80;10.73;;;5.80;92.50;;;;;;4967303;28;20030;-86
2021/03/09 18:36:19;;;;;;;16.97;10.70;;;5.70;92.20;;;;;;4969319;28;20038;-86
2021/03/09 18:38:46;;;;;;;20.90;12.27;;;5.70;92.50;;;;;;4971621;28;20118;-85
2021/03/09 18:41:12;;;;;;;17.73;11.40;;;5.70;92.60;;;;;;4966191;28;20092;-85
2021/03/09 18:43:38;;;;;;;21.60;10.33;;;5.70;92.90;;;;;;4972290;28;20081;-87
2021/03/09 18:46:04;;;;;;;15.10;10.17;;;5.70;92.80;;;;;;4974342;28;20451;-88
2021/03/09 18:48:29;;;;;;;17.37;9.53;;;5.70;92.90;;;;;;4976265;28;20022;-87
2021/03/09 18:50:55;;;;;;;15.97;9.93;;;5.70;93.00;;;;;;4997864;28;20026;-86
2021/03/09 18:53:21;;;;;;;15.37;10.13;;;5.60;93.30;;;;;;4982577;28;20018;-86
2021/03/09 18:55:47;;;;;;;14.07;9.03;;;5.70;93.50;;;;;;4988555;28;20184;-87
2021/03/09 18:58:12;;;;;;;17.80;10.13;;;5.60;94.40;;;;;;5000095;28;20029;-86
2021/03/09 19:00:38;;;;;;;16.27;9.90;;;5.60;94.50;;;;;;4971704;28;20049;-86
2021/03/09 19:03:04;;;;;;;14.80;10.30;;;5.60;95.30;;;;;;4972358;28;20553;-86
2021/03/09 19:05:30;;;;;;;16.33;9.23;;;5.60;96.10;;;;;;4972496;28;20068;-86
2021/03/09 19:07:55;;;;;;;18.20;10.47;;;5.50;97.60;;;;;;4982378;28;20354;-86
2021/03/09 19:10:21;;;;;;;14.43;9.70;;;5.50;98.60;;;;;;4979521;28;20478;-86
2021/03/09 19:12:47;;;;;;;16.20;10.10;;;5.50;99.30;;;;;;4991009;28;20069;-86
2021/03/09 19:15:13;;;;;;;16.73;9.27;;;5.40;99.90;;;;;;4979969;28;20036;-86
2021/03/09 19:17:39;;;;;;;16.20;9.33;;;5.40;99.90;;;;;;4971364;28;20126;-86
2021/03/09 19:20:09;;;;;;;12.67;8.57;;;5.30;99.90;;;;;;4955695;28;20038;-86
2021/03/09 19:22:35;;;;;;;13.40;8.50;;;5.30;99.90;;;;;;4983708;28;20832;-87
2021/03/09 19:25:10;;;;;;;13.70;8.17;;;5.30;99.90;;;;;;4986234;28;20030;-87
2021/03/09 19:27:37;;;;;;;15.33;8.73;;;5.30;99.90;;;;;;4981995;28;20057;-86
2021/03/09 19:30:06;;;;;;;12.67;7.90;;;5.30;99.90;;;;;;4967316;28;20348;-87
2021/03/09 19:32:32;;;;;;;15.83;8.80;;;5.20;99.90;;;;;;4975276;28;20072;-86
2021/03/09 19:34:58;;;;;;;14.33;8.20;;;5.20;99.90;;;;;;4976929;28;20035;-86
2021/03/09 19:37:25;;;;;;;13.80;8.20;;;5.20;99.90;;;;;;4984455;28;20026;-86
2021/03/09 19:39:53;;;;;;;14.40;8.30;;;5.20;99.90;;;;;;4971013;28;20038;-86
2021/03/09 19:42:18;;;;;;;11.73;7.27;;;5.10;99.90;;;;;;4987736;28;20095;-86
2021/03/09 19:44:44;;;;;;;13.90;8.50;;;5.10;99.90;;;;;;4981672;28;20121;-86
2021/03/09 19:47:10;;;;;;;11.60;7.50;;;5.00;99.90;;;;;;4983593;28;20026;-86
2021/03/09 19:49:36;;;;;;;13.97;8.00;;;5.00;99.90;;;;;;4976167;28;20388;-85
2021/03/09 19:52:03;;;;;;;13.43;7.77;;;4.90;99.90;;;;;;4977052;28;20026;-86
2021/03/09 19:54:29;;;;;;;12.37;7.43;;;4.90;99.90;;;;;;4976477;28;20025;-86
2021/03/09 19:56:56;;;;;;;14.67;8.73;;;4.90;99.90;;;;;;4976173;28;20022;-86
2021/03/09 19:59:25;;;;;;;14.23;8.77;;;4.90;99.90;;;;;;4974677;28;20117;-86
2021/03/09 20:01:51;;;;;;;15.83;8.73;;;4.90;99.90;;;;;;4980269;28;20033;-86
2021/03/09 20:04:17;;;;;;;16.60;9.47;;;4.90;99.90;;;;;;4976061;28;20452;-85
2021/03/09 20:06:45;;;;;;;14.50;9.03;;;4.90;99.90;;;;;;4978693;28;20034;-86
2021/03/09 20:09:11;;;;;;;15.90;9.47;;;4.90;99.90;;;;;;4979253;28;20025;-86
2021/03/09 20:11:40;;;;;;;15.93;9.50;;;4.90;99.90;;;;;;4976043;28;20022;-86
2021/03/09 20:14:07;;;;;;;17.77;10.53;;;4.90;99.90;;;;;;4977590;28;20080;-86
2021/03/09 20:16:33;;;;;;;14.93;9.37;;;4.90;99.90;;;;;;4970335;28;20028;-86
2021/03/09 20:18:59;;;;;;;15.60;9.30;;;4.90;99.90;;;;;;4975497;28;20108;-86
2021/03/09 20:21:25;;;;;;;16.00;10.23;;;4.90;99.90;;;;;;4976565;28;20053;-86
2021/03/09 20:23:50;;;;;;;16.57;10.20;;;4.90;99.90;;;;;;4968442;28;20510;-86
2021/03/09 20:26:17;;;;;;;17.30;9.60;;;4.80;99.90;;;;;;4988894;28;20048;-86
2021/03/09 20:28:48;;;;;;;17.53;10.30;;;4.70;99.90;;;;;;4970750;28;20069;-86
2021/03/09 20:31:17;;;;;;;17.60;10.23;;;4.70;99.90;;;;;;4967470;28;20077;-85
2021/03/09 20:33:44;;;;;;;16.60;10.10;;;4.70;99.90;;;;;;4971003;28;20029;-86
2021/03/09 20:36:11;;;;;;;18.07;10.47;;;4.60;99.90;;;;;;4967690;28;20062;-86
2021/03/09 20:38:36;;;;;;;15.00;10.00;;;4.60;99.90;;;;;;4969679;28;20030;-86
2021/03/09 20:41:04;;;;;;;16.77;10.53;;;4.60;99.90;;;;;;4968814;28;20093;-86
2021/03/09 20:43:30;;;;;;;17.03;10.90;;;4.60;99.90;;;;;;4985034;28;20027;-86
2021/03/09 20:45:55;;;;;;;17.00;10.73;;;4.70;99.90;;;;;;4968815;28;20022;-85
2021/03/09 20:48:21;;;;;;;16.80;10.63;;;4.60;99.90;;;;;;4975238;28;20383;-84
2021/03/09 20:50:47;;;;;;;18.87;11.13;;;4.60;99.90;;;;;;4973337;28;20081;-86
2021/03/09 20:53:12;;;;;;;19.43;11.93;;;4.60;99.90;;;;;;4974008;28;20019;-86